Time;durP1;ratioP1;P1;durP2;ratioP2;P2;SDS_P1;SDS_P2;PMS_P1;PMS_P2;Temp;Humidity;BMP_temperature;BMP_pressure;BME280_temperature;BME280_humidity;BME280_pressure;Samples;Min_cycle;Max_cycle;Signal;HPM_P1;HPM_P2
2023/01/06 00:02:24;;;;;;;2.22;1.33;;;12.70;83.90;;;;;;5098620;28;20048;-62
2023/01/06 00:04:50;;;;;;;7.30;2.13;;;12.70;84.10;;;;;;5096977;28;20035;-62
2023/01/06 00:07:15;;;;;;;3.00;1.10;;;12.70;84.10;;;;;;5093878;28;20054;-62
2023/01/06 00:09:41;;;;;;;1.85;1.00;;;12.70;84.10;;;;;;5097015;28;20368;-62
2023/01/06 00:12:07;;;;;;;1.58;1.30;;;12.70;84.10;;;;;;5082375;28;20056;-62
2023/01/06 00:14:33;;;;;;;13.30;1.67;;;12.70;84.20;;;;;;5079016;28;20508;-62
2023/01/06 00:16:58;;;;;;;3.63;1.23;;;12.70;84.20;;;;;;5099821;28;20490;-61
2023/01/06 00:19:24;;;;;;;2.42;1.27;;;12.70;84.30;;;;;;5091500;28;20491;-61
2023/01/06 00:21:50;;;;;;;2.30;1.33;;;12.70;84.30;;;;;;5072725;28;20036;-62
2023/01/06 00:24:15;;;;;;;2.20;1.13;;;12.60;84.40;;;;;;5091441;28;20036;-61
2023/01/06 00:26:41;;;;;;;1.33;1.05;;;12.60;84.40;;;;;;5096650;28;20035;-67
2023/01/06 00:29:09;;;;;;;1.95;1.27;;;12.60;84.50;;;;;;5065952;28;20082;-62
2023/01/06 00:31:37;;;;;;;1.02;0.93;;;12.60;84.40;;;;;;5080085;28;20535;-62
2023/01/06 00:34:03;;;;;;;3.78;1.75;;;12.60;84.40;;;;;;5102879;28;20378;-61
2023/01/06 00:36:28;;;;;;;3.90;1.27;;;12.60;84.30;;;;;;5085750;28;20028;-62
2023/01/06 00:38:54;;;;;;;7.68;1.98;;;12.60;84.20;;;;;;5089774;28;20402;-61
2023/01/06 00:44:05;;;;;;;1.60;1.20;;;12.60;84.20;;;;;;5084431;28;20064;-61
2023/01/06 00:46:33;;;;;;;4.13;1.20;;;12.60;84.20;;;;;;5093676;28;20418;-61
2023/01/06 00:49:00;;;;;;;1.73;1.42;;;12.60;84.10;;;;;;5078715;28;20064;-62
2023/01/06 00:51:26;;;;;;;27.08;1.70;;;12.60;84.10;;;;;;5078457;28;20028;-67
2023/01/06 00:53:52;;;;;;;2.92;1.80;;;12.60;84.70;;;;;;5087394;28;20031;-68
2023/01/06 00:56:18;;;;;;;1.45;1.20;;;12.60;84.00;;;;;;5090971;28;20060;-68
2023/01/06 00:58:44;;;;;;;5.72;1.42;;;12.60;83.90;;;;;;5092596;28;20032;-67
2023/01/06 01:01:10;;;;;;;1.70;1.15;;;12.60;84.00;;;;;;5068987;28;20036;-68
2023/01/06 01:03:36;;;;;;;3.67;1.27;;;12.70;84.00;;;;;;5093268;28;20059;-68
2023/01/06 01:06:05;;;;;;;2.28;1.50;;;12.60;83.90;;;;;;5090516;28;20447;-68
2023/01/06 01:08:31;;;;;;;2.33;1.20;;;12.70;83.90;;;;;;5099123;28;20102;-68
2023/01/06 01:12:08;;;;;;;2.75;1.67;;;12.60;83.90;;;;;;5060618;28;20035;-68
2023/01/06 01:13:57;;;;;;;1.88;1.20;;;12.70;83.80;;;;;;5089764;28;20467;-69
2023/01/06 01:16:22;;;;;;;1.65;1.30;;;12.60;83.80;;;;;;5081074;28;20084;-68
2023/01/06 01:18:48;;;;;;;1.10;1.00;;;12.70;83.80;;;;;;5066614;28;20033;-67
2023/01/06 01:21:14;;;;;;;1.52;1.20;;;12.60;83.80;;;;;;5090117;28;20478;-66
2023/01/06 01:23:39;;;;;;;1.48;1.10;;;12.60;83.70;;;;;;5088898;28;20039;-68
2023/01/06 01:26:05;;;;;;;4.60;1.38;;;12.60;83.70;;;;;;5088563;28;20032;-67
2023/01/06 01:28:32;;;;;;;1.52;1.38;;;12.60;83.70;;;;;;5079163;28;20028;-67
2023/01/06 01:31:01;;;;;;;1.58;1.08;;;12.60;83.80;;;;;;5069652;28;20193;-67
2023/01/06 01:33:30;;;;;;;4.13;1.50;;;12.60;83.80;;;;;;5092676;28;20106;-67
2023/01/06 01:35:56;;;;;;;1.77;0.80;;;12.70;83.80;;;;;;5097100;28;20047;-61
2023/01/06 01:38:24;;;;;;;5.55;1.15;;;12.70;83.80;;;;;;5100480;28;20023;-61
2023/01/06 01:40:50;;;;;;;2.25;1.42;;;12.70;83.60;;;;;;5098349;28;20115;-68
2023/01/06 01:43:16;;;;;;;3.95;1.27;;;12.70;83.60;;;;;;5077497;28;20024;-61
2023/01/06 01:45:45;;;;;;;0.65;0.60;;;12.70;83.50;;;;;;5099120;28;20036;-61
2023/01/06 01:48:24;;;;;;;1.50;0.90;;;12.70;83.50;;;;;;5106006;28;20017;-61
2023/01/06 01:50:54;;;;;;;0.93;0.90;;;12.70;83.40;;;;;;5094703;28;20091;-62
2023/01/06 01:53:26;;;;;;;1.10;0.80;;;12.70;83.30;;;;;;5107285;28;20035;-67
2023/01/06 01:55:55;;;;;;;1.38;0.90;;;12.70;83.30;;;;;;5105209;28;20495;-68
2023/01/06 01:58:28;;;;;;;1.67;1.35;;;12.80;83.30;;;;;;5097359;28;20123;-62
2023/01/06 02:00:54;;;;;;;2.60;0.82;;;12.80;83.10;;;;;;5100134;28;20024;-68
2023/01/06 02:03:21;;;;;;;1.13;1.02;;;12.80;83.10;;;;;;5091057;28;20059;-68
2023/01/06 02:05:51;;;;;;;1.25;0.95;;;12.80;83.00;;;;;;5100266;28;20046;-68
2023/01/06 02:08:25;;;;;;;2.97;1.05;;;12.80;82.90;;;;;;5098389;28;20415;-68
2023/01/06 02:10:51;;;;;;;3.53;1.15;;;12.80;82.90;;;;;;5088642;28;20016;-68
2023/01/06 02:13:16;;;;;;;1.65;1.13;;;12.70;82.90;;;;;;5072767;28;20024;-62
2023/01/06 02:15:42;;;;;;;1.83;1.00;;;12.80;82.90;;;;;;5104205;28;20031;-62
2023/01/06 02:18:28;;;;;;;1.08;0.95;;;12.80;82.80;;;;;;5101693;28;20035;-62
2023/01/06 02:21:06;;;;;;;2.28;1.05;;;12.80;82.50;;;;;;5080379;28;20510;-62
2023/01/06 02:23:54;;;;;;;1.10;1.00;;;12.70;82.50;;;;;;5095663;28;20046;-62
2023/01/06 02:26:34;;;;;;;1.70;1.30;;;12.70;82.20;;;;;;5098878;28;20031;-62
2023/01/06 02:29:30;;;;;;;3.58;0.90;;;12.80;82.30;;;;;;5084828;28;20232;-62
2023/01/06 02:32:27;;;;;;;1.77;0.95;;;12.80;82.10;;;;;;5081651;28;20035;-62
2023/01/06 02:35:01;;;;;;;1.08;0.80;;;12.70;82.10;;;;;;5101489;28;20113;-62
2023/01/06 02:37:32;;;;;;;0.85;0.50;;;12.70;82.20;;;;;;5063120;28;20088;-63
2023/01/06 02:40:01;;;;;;;1.03;0.83;;;12.70;82.10;;;;;;5096484;28;20028;-62
2023/01/06 02:42:35;;;;;;;1.33;0.70;;;12.70;82.10;;;;;;5070828;28;20032;-62
2023/01/06 02:45:20;;;;;;;3.22;0.80;;;12.70;82.10;;;;;;5100453;28;20032;-68
2023/01/06 02:48:09;;;;;;;3.35;0.85;;;12.70;82.20;;;;;;5077423;28;20043;-69
2023/01/06 02:50:38;;;;;;;0.70;0.65;;;12.70;82.20;;;;;;5106121;28;20072;-69
2023/01/06 02:53:34;;;;;;;0.85;0.52;;;12.70;82.30;;;;;;5105642;28;20031;-67
2023/01/06 02:56:01;;;;;;;1.13;0.70;;;12.70;82.30;;;;;;5103234;28;20019;-68
2023/01/06 02:58:34;;;;;;;0.50;0.50;;;12.60;82.50;;;;;;5086399;28;20379;-69
2023/01/06 03:01:10;;;;;;;0.70;0.68;;;12.60;82.50;;;;;;5109067;28;20073;-69
2023/01/06 03:03:39;;;;;;;1.45;0.98;;;12.60;82.60;;;;;;5101447;28;20051;-63
2023/01/06 03:06:10;;;;;;;4.43;0.85;;;12.70;82.60;;;;;;5080724;28;20016;-68
2023/01/06 03:08:37;;;;;;;1.65;0.85;;;12.70;82.50;;;;;;5100027;28;20032;-69
2023/01/06 03:11:04;;;;;;;1.08;0.80;;;12.70;82.50;;;;;;5094418;28;20577;-68
2023/01/06 03:13:54;;;;;;;2.83;0.85;;;12.70;82.30;;;;;;5100262;28;20058;-68
2023/01/06 03:16:20;;;;;;;1.08;0.57;;;12.70;82.40;;;;;;5107112;28;20167;-61
2023/01/06 03:18:49;;;;;;;5.75;0.80;;;12.70;82.40;;;;;;5090153;28;20027;-63
2023/01/06 03:21:20;;;;;;;1.40;1.10;;;12.80;82.50;;;;;;5087990;28;20027;-62
2023/01/06 03:23:46;;;;;;;1.58;0.82;;;12.70;82.40;;;;;;5097054;28;20501;-68
2023/01/06 03:26:12;;;;;;;0.70;0.70;;;12.70;82.40;;;;;;5059373;28;20032;-63
2023/01/06 03:28:38;;;;;;;0.90;0.85;;;12.70;82.40;;;;;;5101213;28;20081;-67
2023/01/06 03:31:15;;;;;;;1.90;0.93;;;12.70;82.20;;;;;;5081861;28;20028;-68
2023/01/06 03:34:09;;;;;;;1.95;1.02;;;12.70;82.30;;;;;;5086962;28;20035;-67
2023/01/06 03:36:54;;;;;;;1.08;0.77;;;12.70;82.30;;;;;;5093523;28;20439;-62
2023/01/06 03:39:26;;;;;;;1.13;0.80;;;12.70;82.00;;;;;;5090341;28;20041;-68
2023/01/06 03:45:11;;;;;;;0.52;0.52;;;12.70;81.90;;;;;;5092736;28;20039;-68
2023/01/06 03:47:49;;;;;;;4.55;1.05;;;12.60;82.00;;;;;;5096529;28;20399;-63
2023/01/06 03:50:22;;;;;;;1.10;0.80;;;12.60;82.00;;;;;;5095075;28;20615;-63
2023/01/06 03:53:12;;;;;;;0.52;0.52;;;12.60;81.80;;;;;;5074570;28;20035;-68
2023/01/06 03:55:43;;;;;;;1.45;1.00;;;12.60;81.80;;;;;;5090261;28;20044;-62
2023/01/06 03:58:11;;;;;;;1.20;0.90;;;12.60;81.80;;;;;;5092053;28;20040;-62
2023/01/06 04:00:37;;;;;;;2.30;0.93;;;12.60;81.60;;;;;;5093142;28;20543;-63
2023/01/06 04:03:08;;;;;;;0.68;0.55;;;12.60;81.60;;;;;;5091210;28;20044;-62
2023/01/06 04:05:34;;;;;;;1.27;0.77;;;12.70;81.60;;;;;;5097797;28;20027;-62
2023/01/06 04:07:59;;;;;;;0.30;0.30;;;12.70;81.40;;;;;;5073322;28;20490;-62
2023/01/06 04:10:25;;;;;;;2.22;0.70;;;12.70;81.30;;;;;;5079923;28;20455;-61
2023/01/06 04:12:51;;;;;;;0.40;0.40;;;12.70;81.30;;;;;;5090754;28;20039;-67
2023/01/06 04:15:22;;;;;;;1.30;0.73;;;12.70;81.30;;;;;;5096221;28;20047;-67
2023/01/06 04:17:48;;;;;;;0.68;0.68;;;12.70;81.10;;;;;;5092831;28;20478;-61
2023/01/06 04:20:18;;;;;;;0.50;0.50;;;12.70;81.00;;;;;;5074147;28;20471;-61
2023/01/06 04:22:44;;;;;;;2.08;0.57;;;12.70;81.00;;;;;;5090681;28;20016;-61
2023/01/06 04:25:10;;;;;;;0.98;0.75;;;12.70;80.80;;;;;;5075827;28;20036;-62
2023/01/06 04:27:36;;;;;;;0.68;0.57;;;12.70;80.80;;;;;;5081950;28;20017;-62
2023/01/06 04:30:02;;;;;;;0.47;0.38;;;12.70;80.80;;;;;;5091867;28;20046;-68
2023/01/06 04:32:27;;;;;;;0.60;0.60;;;12.70;80.70;;;;;;5082754;28;20132;-61
2023/01/06 04:34:53;;;;;;;1.15;0.70;;;12.70;80.50;;;;;;5066227;28;20554;-62
2023/01/06 04:37:19;;;;;;;0.60;0.32;;;12.70;80.60;;;;;;5090300;28;20040;-67
2023/01/06 04:39:45;;;;;;;1.02;0.30;;;12.70;80.50;;;;;;5090852;28;20041;-68
2023/01/06 04:42:10;;;;;;;0.40;0.40;;;12.70;80.40;;;;;;5102451;28;20031;-68
2023/01/06 04:44:36;;;;;;;1.08;0.55;;;12.70;80.30;;;;;;5097999;28;20027;-68
2023/01/06 04:47:02;;;;;;;0.98;0.50;;;12.70;80.00;;;;;;5091762;28;20016;-68
2023/01/06 04:49:28;;;;;;;0.90;0.45;;;12.70;80.00;;;;;;5090559;28;20034;-68
2023/01/06 04:51:53;;;;;;;0.35;0.35;;;12.70;80.10;;;;;;5062264;28;20027;-68
2023/01/06 04:54:19;;;;;;;0.73;0.70;;;12.70;80.10;;;;;;5072920;28;20032;-62
2023/01/06 04:56:45;;;;;;;3.33;0.73;;;12.70;79.90;;;;;;5085835;28;20085;-61
2023/01/06 04:59:10;;;;;;;0.40;0.40;;;12.70;79.80;;;;;;5109206;28;20032;-67
2023/01/06 05:01:36;;;;;;;3.20;0.50;;;12.70;79.80;;;;;;5106965;28;20059;-61
2023/01/06 05:04:04;;;;;;;4.05;0.85;;;12.70;79.70;;;;;;5103606;28;20375;-63
2023/01/06 05:06:30;;;;;;;0.82;0.47;;;12.70;79.60;;;;;;5105525;28;20097;-63
2023/01/06 05:08:56;;;;;;;1.40;0.93;;;12.60;79.60;;;;;;5094623;28;20466;-68
2023/01/06 05:11:23;;;;;;;0.60;0.40;;;12.70;79.70;;;;;;5089055;28;20051;-68
2023/01/06 05:13:49;;;;;;;1.58;0.70;;;12.70;79.70;;;;;;5090072;28;20449;-67
2023/01/06 05:16:18;;;;;;;0.35;0.35;;;12.70;79.70;;;;;;5078010;28;20094;-68
2023/01/06 05:18:45;;;;;;;1.13;0.60;;;12.70;79.70;;;;;;5088567;28;20402;-68
2023/01/06 05:21:23;;;;;;;2.47;0.70;;;12.70;79.60;;;;;;5090742;28;20032;-62
2023/01/06 05:23:49;;;;;;;0.75;0.57;;;12.70;79.50;;;;;;5070936;28;20036;-62
2023/01/06 05:26:17;;;;;;;1.08;0.50;;;12.70;79.50;;;;;;5080668;28;20478;-62
2023/01/06 05:28:43;;;;;;;0.95;0.75;;;12.70;79.60;;;;;;5089786;28;20020;-67
2023/01/06 05:31:10;;;;;;;0.35;0.30;;;12.70;79.40;;;;;;5090365;28;20525;-62
2023/01/06 05:33:36;;;;;;;0.65;0.50;;;12.70;79.60;;;;;;5092927;28;20051;-62
2023/01/06 05:36:04;;;;;;;0.30;0.30;;;12.70;79.50;;;;;;5097626;28;20036;-61
2023/01/06 05:38:30;;;;;;;0.40;0.40;;;12.70;79.50;;;;;;5089454;28;20475;-61
2023/01/06 05:40:56;;;;;;;2.35;0.70;;;12.70;79.40;;;;;;5096409;28;20034;-67
2023/01/06 05:43:23;;;;;;;0.95;0.70;;;12.70;79.50;;;;;;5071622;28;20024;-67
2023/01/06 05:45:49;;;;;;;0.75;0.50;;;12.70;79.40;;;;;;5075616;28;20088;-61
2023/01/06 05:48:15;;;;;;;1.67;0.60;;;12.70;79.40;;;;;;5089874;28;20518;-61
2023/01/06 05:50:40;;;;;;;1.02;0.50;;;12.70;79.50;;;;;;5084020;28;20039;-62
2023/01/06 05:53:06;;;;;;;0.70;0.50;;;12.70;79.50;;;;;;5081232;28;20066;-62
2023/01/06 05:55:32;;;;;;;1.00;0.82;;;12.70;79.50;;;;;;5066051;28;20028;-67
2023/01/06 05:57:58;;;;;;;0.40;0.40;;;12.70;79.30;;;;;;5071349;28;20046;-68
2023/01/06 06:00:23;;;;;;;0.82;0.38;;;12.70;79.40;;;;;;5046736;28;20487;-68
2023/01/06 06:02:49;;;;;;;0.68;0.50;;;12.70;79.60;;;;;;5052015;28;20045;-67
2023/01/06 06:05:15;;;;;;;1.05;0.50;;;12.70;79.40;;;;;;5053668;28;20032;-69
2023/01/06 06:07:41;;;;;;;1.33;0.70;;;12.70;79.30;;;;;;5054906;28;20070;-67
2023/01/06 06:10:08;;;;;;;0.68;0.50;;;12.70;79.30;;;;;;5055629;28;20063;-67
2023/01/06 06:12:34;;;;;;;0.57;0.57;;;12.70;79.30;;;;;;5050104;28;20033;-67
2023/01/06 06:14:59;;;;;;;0.60;0.60;;;12.70;79.30;;;;;;5067588;28;20021;-67
2023/01/06 06:17:25;;;;;;;0.43;0.40;;;12.70;79.40;;;;;;5049669;28;20029;-68
2023/01/06 06:19:51;;;;;;;0.93;0.60;;;12.70;79.50;;;;;;5066815;28;20028;-68
2023/01/06 06:22:17;;;;;;;3.42;0.73;;;12.70;79.80;;;;;;5074348;28;20082;-68
2023/01/06 06:24:42;;;;;;;0.80;0.60;;;12.70;80.10;;;;;;5070037;28;20605;-67
2023/01/06 06:27:08;;;;;;;0.65;0.65;;;12.70;80.30;;;;;;5070010;28;20163;-67
2023/01/06 06:29:34;;;;;;;0.47;0.47;;;12.70;80.50;;;;;;5065265;28;20089;-67
2023/01/06 06:31:59;;;;;;;0.65;0.50;;;12.70;80.60;;;;;;5068791;28;20089;-66
2023/01/06 06:34:25;;;;;;;0.52;0.38;;;12.60;80.70;;;;;;5072241;28;20097;-67
2023/01/06 06:36:51;;;;;;;1.33;0.65;;;12.70;80.80;;;;;;5058310;28;20032;-67
2023/01/06 06:39:17;;;;;;;0.30;0.30;;;12.60;80.80;;;;;;5080346;28;20511;-67
2023/01/06 06:41:42;;;;;;;0.73;0.30;;;12.60;80.80;;;;;;5067131;28;20055;-67
2023/01/06 06:44:08;;;;;;;0.63;0.50;;;12.70;80.90;;;;;;5075960;28;20444;-62
2023/01/06 06:46:34;;;;;;;0.60;0.38;;;12.60;80.70;;;;;;5064049;28;20055;-62
2023/01/06 06:48:59;;;;;;;2.55;0.98;;;12.60;80.80;;;;;;5067282;28;20070;-68
2023/01/06 06:51:25;;;;;;;0.82;0.47;;;12.60;80.70;;;;;;5076456;28;20029;-61
2023/01/06 06:53:51;;;;;;;0.43;0.32;;;12.60;80.70;;;;;;5071628;28;20544;-62
2023/01/06 06:56:18;;;;;;;0.35;0.35;;;12.60;80.60;;;;;;5067028;28;20028;-62
2023/01/06 06:58:44;;;;;;;0.65;0.30;;;12.70;80.70;;;;;;5072119;28;20033;-62
2023/01/06 07:01:12;;;;;;;4.30;0.60;;;12.70;80.60;;;;;;5070860;28;20095;-62
2023/01/06 07:03:38;;;;;;;0.60;0.50;;;12.70;80.60;;;;;;5089177;28;20048;-68
2023/01/06 07:06:06;;;;;;;0.40;0.40;;;12.70;80.60;;;;;;5073296;28;20031;-68
2023/01/06 07:08:33;;;;;;;3.00;0.60;;;12.70;80.80;;;;;;5071693;28;20051;-67
2023/01/06 07:10:58;;;;;;;0.80;0.70;;;12.70;80.80;;;;;;5092166;28;20071;-68
2023/01/06 07:13:24;;;;;;;3.40;0.80;;;12.70;80.80;;;;;;5093875;28;20475;-68
2023/01/06 07:15:50;;;;;;;0.50;0.50;;;12.70;80.90;;;;;;5063898;28;20020;-68
2023/01/06 07:18:16;;;;;;;0.93;0.70;;;12.70;81.00;;;;;;5099903;28;20036;-69
2023/01/06 07:20:47;;;;;;;1.13;0.52;;;12.70;81.00;;;;;;5085265;28;20042;-68
2023/01/06 07:23:13;;;;;;;0.55;0.55;;;12.70;81.00;;;;;;5095018;28;20419;-62
2023/01/06 07:25:39;;;;;;;0.98;0.50;;;12.70;81.70;;;;;;5099431;28;20064;-60
2023/01/06 07:28:24;;;;;;;1.30;0.85;;;12.70;81.30;;;;;;5096461;28;20032;-65
2023/01/06 07:30:50;;;;;;;0.85;0.60;;;12.70;81.40;;;;;;5076416;28;20483;-66
2023/01/06 07:33:16;;;;;;;0.40;0.40;;;12.60;81.60;;;;;;5073640;28;20390;-65
2023/01/06 07:35:42;;;;;;;0.88;0.60;;;12.60;81.60;;;;;;5088852;28;20485;-65
2023/01/06 07:38:08;;;;;;;0.77;0.60;;;12.60;81.80;;;;;;5100032;28;20032;-61
2023/01/06 07:40:35;;;;;;;0.30;0.30;;;12.60;82.10;;;;;;5074013;28;20106;-66
2023/01/06 07:43:05;;;;;;;1.35;0.82;;;12.60;82.60;;;;;;5069091;28;20036;-65
2023/01/06 07:45:32;;;;;;;1.10;0.98;;;12.50;83.30;;;;;;5089784;28;20481;-64
2023/01/06 07:47:57;;;;;;;1.92;0.65;;;12.40;83.90;;;;;;5073560;28;20036;-64
2023/01/06 07:50:23;;;;;;;1.02;0.60;;;12.40;84.40;;;;;;5072934;28;20140;-60
2023/01/06 07:52:49;;;;;;;1.58;0.57;;;12.30;84.70;;;;;;5089877;28;20035;-60
2023/01/06 07:55:15;;;;;;;0.80;0.80;;;12.30;85.10;;;;;;5072825;28;20039;-65
2023/01/06 07:57:41;;;;;;;1.27;0.82;;;12.20;85.40;;;;;;5091314;28;20046;-65
2023/01/06 08:00:08;;;;;;;0.70;0.63;;;12.20;85.40;;;;;;5089574;28;20040;-66
2023/01/06 08:02:33;;;;;;;0.90;0.65;;;12.30;85.50;;;;;;5072775;28;20056;-63
2023/01/06 08:04:59;;;;;;;0.70;0.60;;;12.30;85.60;;;;;;5090402;28;20039;-63
2023/01/06 08:07:25;;;;;;;1.08;0.90;;;12.30;85.60;;;;;;5093301;28;20024;-63
2023/01/06 08:09:50;;;;;;;0.73;0.73;;;12.30;85.60;;;;;;5100900;28;20382;-63
2023/01/06 08:12:17;;;;;;;0.75;0.75;;;12.30;85.60;;;;;;5072881;28;20109;-70
2023/01/06 08:14:42;;;;;;;1.10;1.00;;;12.30;85.80;;;;;;5057232;28;20064;-68
2023/01/06 08:17:08;;;;;;;1.15;1.05;;;12.30;86.30;;;;;;5093965;28;20471;-69
2023/01/06 08:19:34;;;;;;;2.60;0.95;;;12.30;86.50;;;;;;5089951;28;20040;-68
2023/01/06 08:22:00;;;;;;;1.20;1.10;;;12.20;86.60;;;;;;5055625;28;20038;-70
2023/01/06 08:24:25;;;;;;;1.73;1.00;;;12.20;86.90;;;;;;5092906;28;20048;-71
2023/01/06 08:26:51;;;;;;;1.35;1.25;;;12.20;86.90;;;;;;5088009;28;20028;-71
2023/01/06 08:29:17;;;;;;;1.00;0.90;;;12.30;86.90;;;;;;5081498;28;20040;-70
2023/01/06 08:31:42;;;;;;;2.15;1.00;;;12.30;87.20;;;;;;5081971;28;20456;-69
2023/01/06 08:34:10;;;;;;;3.85;1.20;;;12.20;87.30;;;;;;5076592;28;20036;-69
2023/01/06 08:36:36;;;;;;;2.78;1.38;;;12.20;87.40;;;;;;5093273;28;20386;-70
2023/01/06 08:39:02;;;;;;;1.73;1.20;;;12.20;87.50;;;;;;5090912;28;20035;-62
2023/01/06 08:41:27;;;;;;;1.23;1.08;;;12.20;87.40;;;;;;5074773;28;20042;-61
2023/01/06 08:43:54;;;;;;;1.20;1.00;;;12.20;87.20;;;;;;5093207;28;20024;-61
2023/01/06 08:46:20;;;;;;;1.35;1.20;;;12.30;87.10;;;;;;5092012;28;20032;-62
2023/01/06 08:48:46;;;;;;;4.18;1.27;;;12.30;87.00;;;;;;5089493;28;20081;-70
2023/01/06 08:51:15;;;;;;;0.93;0.88;;;12.30;87.00;;;;;;5083449;28;20451;-70
2023/01/06 08:53:42;;;;;;;0.98;0.85;;;12.30;87.00;;;;;;5083846;28;20024;-69
2023/01/06 08:56:17;;;;;;;0.70;0.70;;;12.30;87.00;;;;;;5088111;28;20416;-69
2023/01/06 08:58:44;;;;;;;1.88;1.00;;;12.40;86.90;;;;;;5089273;28;20016;-69
2023/01/06 09:01:21;;;;;;;1.10;1.00;;;12.40;86.80;;;;;;5088846;28;20028;-61
2023/01/06 09:03:46;;;;;;;1.60;1.08;;;12.40;86.80;;;;;;5083305;28;20036;-61
2023/01/06 09:06:12;;;;;;;2.13;1.30;;;12.40;86.70;;;;;;5090271;28;20073;-69
2023/01/06 09:08:38;;;;;;;1.30;1.20;;;12.40;86.70;;;;;;5091884;28;20066;-69
2023/01/06 09:11:09;;;;;;;1.00;0.73;;;12.40;86.60;;;;;;5066416;28;20488;-70
2023/01/06 09:13:36;;;;;;;0.95;0.88;;;12.40;86.60;;;;;;5087143;28;20049;-61
2023/01/06 09:16:08;;;;;;;2.20;1.05;;;12.50;86.50;;;;;;5099348;28;20383;-61
2023/01/06 09:18:34;;;;;;;0.80;0.80;;;12.40;86.30;;;;;;5070956;28;20032;-61
2023/01/06 09:21:00;;;;;;;0.88;0.85;;;12.50;86.50;;;;;;5091832;28;20028;-62
2023/01/06 09:23:26;;;;;;;1.25;0.75;;;12.50;86.30;;;;;;5092181;28;20100;-61
2023/01/06 09:25:54;;;;;;;1.00;0.90;;;12.50;86.10;;;;;;5091580;28;20020;-70
2023/01/06 09:28:20;;;;;;;1.58;0.90;;;12.60;85.80;;;;;;5094837;28;20038;-69
2023/01/06 09:30:50;;;;;;;1.60;1.23;;;12.70;85.70;;;;;;5091015;28;20028;-62
2023/01/06 09:33:16;;;;;;;1.75;0.95;;;12.80;85.40;;;;;;5088548;28;20021;-61
2023/01/06 09:35:43;;;;;;;1.02;0.77;;;12.80;85.00;;;;;;5087289;28;20035;-62
2023/01/06 09:38:10;;;;;;;1.20;1.08;;;12.90;84.60;;;;;;5090806;28;20028;-61
2023/01/06 09:41:11;;;;;;;0.70;0.57;;;13.00;84.30;;;;;;5087260;28;20368;-61
2023/01/06 09:43:40;;;;;;;0.70;0.60;;;13.10;84.20;;;;;;5086653;28;20044;-61
2023/01/06 09:46:08;;;;;;;1.15;0.60;;;13.10;83.80;;;;;;5073214;28;20062;-61
2023/01/06 09:48:42;;;;;;;1.35;0.60;;;13.10;83.60;;;;;;5093017;28;20160;-62
2023/01/06 09:51:16;;;;;;;4.78;1.30;;;13.10;83.00;;;;;;5093610;28;20027;-62
2023/01/06 09:53:50;;;;;;;1.25;0.60;;;13.10;83.20;;;;;;5078157;28;20031;-62
2023/01/06 09:56:18;;;;;;;3.00;1.13;;;13.10;82.90;;;;;;5086817;28;20020;-62
2023/01/06 09:59:09;;;;;;;1.00;0.70;;;13.10;82.50;;;;;;5098759;28;20038;-62
2023/01/06 10:01:43;;;;;;;0.50;0.50;;;13.10;82.50;;;;;;5092474;28;20051;-62
2023/01/06 10:04:19;;;;;;;2.88;1.10;;;13.00;82.40;;;;;;5100444;28;20035;-61
2023/01/06 10:07:13;;;;;;;0.73;0.68;;;12.90;82.50;;;;;;5077839;28;20134;-62
2023/01/06 10:10:00;;;;;;;0.52;0.47;;;12.80;82.40;;;;;;5085731;28;20028;-70
2023/01/06 10:12:36;;;;;;;1.05;0.77;;;12.80;82.60;;;;;;5097046;28;20038;-62
2023/01/06 10:15:23;;;;;;;5.93;1.52;;;12.80;82.40;;;;;;5110919;28;20744;-62
2023/01/06 10:18:18;;;;;;;2.10;0.90;;;12.80;82.00;;;;;;5081902;28;20055;-62
2023/01/06 10:20:51;;;;;;;2.38;0.82;;;12.70;82.00;;;;;;5091442;28;20428;-62
2023/01/06 10:23:23;;;;;;;4.35;0.85;;;12.80;81.90;;;;;;5097220;28;20020;-62
2023/01/06 10:25:53;;;;;;;1.15;0.82;;;12.80;81.30;;;;;;5089773;28;20039;-62
2023/01/06 10:28:29;;;;;;;1.50;0.95;;;12.90;81.20;;;;;;5090274;28;20485;-69
2023/01/06 10:30:58;;;;;;;1.40;0.40;;;13.20;81.60;;;;;;5097293;28;20486;-70
2023/01/06 10:33:36;;;;;;;0.75;0.75;;;14.10;80.60;;;;;;5090987;28;20055;-62
2023/01/06 10:36:03;;;;;;;1.25;0.90;;;15.30;76.90;;;;;;5088001;28;20067;-62
2023/01/06 10:38:58;;;;;;;3.03;1.00;;;16.10;74.00;;;;;;5074578;28;20021;-62
2023/01/06 10:41:43;;;;;;;2.22;1.02;;;16.60;70.60;;;;;;5059587;28;20044;-69
2023/01/06 10:44:10;;;;;;;0.88;0.73;;;16.70;69.10;;;;;;5073847;28;20051;-68
2023/01/06 10:46:36;;;;;;;3.00;0.57;;;16.70;68.00;;;;;;5061451;28;20062;-60
2023/01/06 10:49:04;;;;;;;2.80;0.82;;;16.60;68.60;;;;;;5082889;28;20035;-61
2023/01/06 10:51:44;;;;;;;2.47;0.60;;;16.40;68.40;;;;;;5081798;28;20031;-62
2023/01/06 10:54:16;;;;;;;1.13;0.70;;;16.40;68.80;;;;;;5075735;28;20059;-61
2023/01/06 10:56:51;;;;;;;0.95;0.85;;;16.30;68.00;;;;;;5083108;28;20088;-60
2023/01/06 10:59:17;;;;;;;2.33;0.93;;;16.10;69.50;;;;;;5063440;28;20081;-61
2023/01/06 11:01:51;;;;;;;2.60;0.63;;;16.40;68.30;;;;;;5082985;28;20419;-61
2023/01/06 11:04:18;;;;;;;0.30;0.30;;;16.90;67.20;;;;;;5083835;28;20082;-61
2023/01/06 11:06:54;;;;;;;0.73;0.52;;;17.50;65.80;;;;;;5062214;28;20490;-61
2023/01/06 11:09:29;;;;;;;0.93;0.60;;;17.80;63.70;;;;;;5058261;28;20568;-61
2023/01/06 11:11:58;;;;;;;0.40;0.40;;;18.00;62.90;;;;;;5075247;28;20032;-62
2023/01/06 11:14:33;;;;;;;2.08;0.73;;;18.10;62.20;;;;;;5074727;28;20028;-62
2023/01/06 11:17:06;;;;;;;0.88;0.47;;;18.00;59.90;;;;;;5077797;28;20029;-62
2023/01/06 11:19:37;;;;;;;2.38;0.40;;;17.70;59.70;;;;;;5076461;28;20031;-61
2023/01/06 11:22:08;;;;;;;0.30;0.30;;;17.20;61.10;;;;;;5076505;28;20047;-70
2023/01/06 11:24:50;;;;;;;0.82;0.35;;;17.10;62.20;;;;;;5067609;28;20031;-61
2023/01/06 11:27:16;;;;;;;1.38;0.60;;;16.70;61.40;;;;;;5063712;28;20035;-61
2023/01/06 11:29:42;;;;;;;0.40;0.30;;;16.50;61.90;;;;;;5082664;28;20415;-69
2023/01/06 11:32:14;;;;;;;1.33;0.70;;;16.50;61.10;;;;;;5081592;28;20036;-61
2023/01/06 11:34:43;;;;;;;;;;;16.50;60.70;;;;;;5070381;28;20047;-61
2023/01/06 11:37:08;;;;;;;2.70;1.00;;;16.40;60.80;;;;;;5075145;28;19916;-68
2023/01/06 11:39:36;;;;;;;1.40;0.68;;;16.60;60.30;;;;;;5074941;28;20363;-69
2023/01/06 11:42:09;;;;;;;0.70;0.43;;;16.60;59.50;;;;;;5078745;28;20016;-69
2023/01/06 11:44:42;;;;;;;2.42;0.63;;;16.50;59.50;;;;;;5069839;28;20051;-61
2023/01/06 11:47:19;;;;;;;0.38;0.32;;;16.60;59.70;;;;;;5078767;28;20040;-62
2023/01/06 11:49:54;;;;;;;1.55;0.40;;;17.30;59.30;;;;;;5080388;28;20059;-69
2023/01/06 11:52:24;;;;;;;3.42;0.80;;;17.90;57.90;;;;;;5063322;28;20024;-69
2023/01/06 11:55:01;;;;;;;1.67;0.85;;;18.10;55.90;;;;;;5077795;28;20115;-69
2023/01/06 11:57:46;;;;;;;1.30;0.60;;;18.30;56.30;;;;;;5083458;28;20108;-69
2023/01/06 12:00:17;;;;;;;0.50;0.30;;;18.60;55.40;;;;;;5088586;28;20748;-69
2023/01/06 12:03:21;;;;;;;0.57;0.57;;;19.10;54.80;;;;;;5083430;28;20556;-69
2023/01/06 12:05:53;;;;;;;1.58;0.60;;;19.20;53.80;;;;;;5075558;28;20173;-69
2023/01/06 12:08:23;;;;;;;0.63;0.50;;;18.90;54.60;;;;;;5089717;28;20410;-69
2023/01/06 12:11:18;;;;;;;0.50;0.50;;;18.40;55.20;;;;;;5101548;28;20024;-69
2023/01/06 12:13:44;;;;;;;1.05;0.70;;;17.90;56.40;;;;;;5072040;28;20419;-68
2023/01/06 12:16:22;;;;;;;1.50;0.57;;;17.70;57.20;;;;;;5066366;28;20058;-68
2023/01/06 12:18:49;;;;;;;1.13;0.70;;;17.70;58.50;;;;;;5056657;28;20055;-61
2023/01/06 12:21:24;;;;;;;0.68;0.68;;;17.60;57.90;;;;;;5079535;28;20019;-61
2023/01/06 12:23:51;;;;;;;0.68;0.68;;;17.70;57.70;;;;;;5082905;28;20425;-61
2023/01/06 12:26:22;;;;;;;1.45;0.85;;;17.80;58.50;;;;;;5078872;28;20032;-61
2023/01/06 12:28:50;;;;;;;1.13;0.60;;;18.40;57.60;;;;;;5077927;28;20025;-61
2023/01/06 12:31:19;;;;;;;1.60;0.80;;;18.50;56.80;;;;;;5075562;28;20077;-61
2023/01/06 12:34:03;;;;;;;2.33;0.70;;;18.60;56.40;;;;;;5086945;28;20044;-61
2023/01/06 12:36:47;;;;;;;4.07;0.65;;;19.10;56.40;;;;;;5069832;28;20107;-61
2023/01/06 12:39:21;;;;;;;0.82;0.50;;;20.00;54.70;;;;;;5086552;28;20030;-61
2023/01/06 12:41:56;;;;;;;4.85;1.33;;;20.20;53.80;;;;;;5084403;28;20368;-61
2023/01/06 12:44:49;;;;;;;0.63;0.50;;;20.10;53.10;;;;;;5082713;28;20095;-61
2023/01/06 12:47:30;;;;;;;1.30;0.57;;;19.90;52.70;;;;;;5085922;28;20077;-69
2023/01/06 12:50:16;;;;;;;3.13;0.73;;;19.70;53.70;;;;;;5073829;28;20430;-69
2023/01/06 12:52:50;;;;;;;1.48;0.52;;;19.80;52.80;;;;;;5084391;28;20032;-69
2023/01/06 12:55:20;;;;;;;1.27;0.60;;;19.70;53.10;;;;;;5080351;28;20040;-69
2023/01/06 12:58:07;;;;;;;3.88;0.30;;;19.70;52.40;;;;;;5079552;28;20055;-69
2023/01/06 13:00:45;;;;;;;0.57;0.40;;;19.60;52.20;;;;;;5081738;28;20028;-61
2023/01/06 13:03:33;;;;;;;4.82;0.55;;;19.50;50.90;;;;;;5061572;28;20045;-69
2023/01/06 13:06:40;;;;;;;0.63;0.40;;;19.00;50.30;;;;;;5048125;28;20056;-69
2023/01/06 13:09:31;;;;;;;0.73;0.30;;;17.90;52.10;;;;;;5048547;28;20032;-61
2023/01/06 13:11:57;;;;;;;1.75;0.50;;;17.10;54.50;;;;;;5085395;28;20029;-69